Home > Products > Valid Products > TAF

000
FTUS46 KPDT 180300 AAB
TAFDLS
TAF AMD
KDLS 180352Z 1804/1824 30008KT P6SM SCT250
     FM180900 VRB03KT P6SM FEW008
     FM181500 VRB04KT P6SM SKC=



000
FTUS46 KPDT 180200 AAA
TAFYKM
TAF AMD
KYKM 180209Z 1802/1824 34008G15KT P6SM SCT080
     FM180600 30010KT P6SM SKC
     FM181500 VRB05KT P6SM SKC=



000
FTUS46 KPDT 180000 AAB
TAFRDM
TAF AMD
KRDM 180001Z 1800/1824 32005KT P6SM SCT250
     FM180900 VRB05KT P6SM SKC
     FM182100 34007KT P6SM SKC=



000
FTUS46 KPDT 180000 AAB
TAFRDM
TAF AMD
KRDM 180001Z 1800/1824 32005KT P6SM SCT250
     FM180900 VRB05KT P6SM SKC
     FM182100 34007KT P6SM SKC=



000
FTUS46 KPDT 180000 AAA
TAFRDM
TAF AMD
KRDM 180000Z 1800/1824 35010G20KT P6SM SCT250
     FM180900 VRB05KT P6SM SKC
     FM182100 34007KT P6SM SKC=



000
FTUS46 KPDT 180000 AAA
TAFRDM
TAF AMD
KRDM 180000Z 1800/1824 35010G20KT P6SM SCT250
     FM180900 VRB05KT P6SM SKC
     FM182100 34007KT P6SM SKC=



000
FTUS46 KPDT 172300 AAA
TAFDLS
TAF AMD
KDLS 172359Z 1800/1824 29015G25KT P6SM SCT250
     FM180900 VRB03KT P6SM FEW008
     FM181500 VRB04KT P6SM SKC=



000
FTUS46 KPDT 172300 AAA
TAFDLS
TAF AMD
KDLS 172359Z 1800/1824 29015G25KT P6SM SCT250
     FM180900 VRB03KT P6SM FEW008
     FM181500 VRB04KT P6SM SKC=



000
FTUS46 KPDT 172300
TAFPSC
TAF
KPSC 172320Z 1800/1824 VRB05KT P6SM FEW250=



000
FTUS46 KPDT 172300
TAFDLS
TAF
KDLS 172320Z 1800/1824 31011KT P6SM SCT250
     FM180900 VRB03KT P6SM FEW008
     FM181500 VRB04KT P6SM SKC=



000
FTUS46 KPDT 172300
TAFALW
TAF
KALW 172320Z 1800/1824 VRB04KT P6SM SKC
     FM180300 15006KT P6SM FEW250
     FM180600 17005KT P6SM SKC
     FM181500 20006KT P6SM SKC=



000
FTUS46 KPDT 172300
TAFYKM
TAF
KYKM 172320Z 1800/1824 VRB05KT P6SM FEW070 SCT250
     FM180200 32011G20KT P6SM FEW070
     FM180600 30010KT P6SM SKC
     FM181500 VRB05KT P6SM SKC=



000
FTUS46 KPDT 172300
TAFYKM
TAF
KYKM 172320Z 1800/1824 VRB05KT P6SM FEW070 SCT250
     FM180200 32011G20KT P6SM FEW070
     FM180600 30010KT P6SM SKC
     FM181500 VRB05KT P6SM SKC=



000
FTUS46 KPDT 172300
TAFRDM
TAF
KRDM 172320Z 1800/1824 36008KT P6SM SCT250
     FM180900 VRB05KT P6SM SKC
     FM182100 34007KT P6SM SKC=



000
FTUS46 KPDT 172300
TAFDLS
TAF
KDLS 172320Z 1800/1824 31011KT P6SM SCT250
     FM180900 VRB03KT P6SM FEW008
     FM181500 VRB04KT P6SM SKC=



000
FTUS46 KPDT 172300
TAFPDT
TAF
KPDT 172320Z 1800/1824 30007KT P6SM FEW250
     FM180400 24011KT P6SM SCT250
     FM180800 16005KT P6SM SKC
     FM181600 29006KT P6SM SKC=



000
FTUS46 KPDT 172300
TAFALW
TAF
KALW 172320Z 1800/1824 VRB04KT P6SM SKC
     FM180300 15006KT P6SM FEW250
     FM180600 17005KT P6SM SKC
     FM181500 20006KT P6SM SKC=



000
FTUS46 KPDT 172300
TAFRDM
TAF
KRDM 172320Z 1800/1824 36008KT P6SM SCT250
     FM180900 VRB05KT P6SM SKC
     FM182100 34007KT P6SM SKC=



000
FTUS46 KPDT 172300
TAFPDT
TAF
KPDT 172320Z 1800/1824 30007KT P6SM FEW250
     FM180400 24011KT P6SM SCT250
     FM180800 16005KT P6SM SKC
     FM181600 29006KT P6SM SKC=



000
FTUS46 KPDT 172300
TAFPSC
TAF
KPSC 172320Z 1800/1824 VRB05KT P6SM FEW250=



000
FTUS46 KPDT 171700
TAFRDM
TAF
KRDM 171720Z 1718/1818 VRB04KT P6SM SKC
     FM172100 34008KT P6SM SCT250
     FM180900 VRB05KT P6SM SKC=



000
FTUS46 KPDT 171700
TAFDLS
TAF
KDLS 171720Z 1718/1818 VRB04KT P6SM SKC
     FM172100 32011KT P6SM SCT250
     FM180000 31015G22KT P6SM SCT250
     FM180400 31011KT P6SM SKC
     FM180900 VRB03KT P6SM FEW008
     FM181500 VRB04KT P6SM SKC=



000
FTUS46 KPDT 171700
TAFPSC
TAF
KPSC 171720Z 1718/1818 VRB04KT P6SM FEW250
     FM172100 33005KT P6SM SCT250=



000
FTUS46 KPDT 171700
TAFALW
TAF
KALW 171720Z 1718/1818 24006KT P6SM SKC
     FM180300 15006KT P6SM FEW250
     FM180600 17005KT P6SM SKC
     FM181500 20006KT P6SM SKC=



000
FTUS46 KPDT 171700
TAFYKM
TAF
KYKM 171720Z 1718/1818 VRB04KT P6SM FEW250
     FM172100 12005KT P6SM FEW070 SCT250
     FM180200 32011G20KT P6SM FEW070
     FM180600 30010KT P6SM SKC=



000
FTUS46 KPDT 171700
TAFPDT
TAF
KPDT 171720Z 1718/1818 VRB05KT P6SM SKC
     FM172100 30007KT P6SM FEW250
     FM180400 24011KT P6SM SCT250
     FM180800 15005KT P6SM SKC
     FM181600 25006KT P6SM SKC=



000
FTUS46 KPDT 171100
TAFRDM
TAF
KRDM 171120Z 1712/1812 15005KT P6SM FEW250
     FM172100 34008KT P6SM SCT250
     FM180900 25005KT P6SM SKC=



000
FTUS46 KPDT 171100
TAFPSC
TAF
KPSC 171120Z 1712/1812 VRB05KT P6SM SKC
     FM172100 VRB05KT P6SM SCT250=



000
FTUS46 KPDT 171100
TAFPDT
TAF
KPDT 171120Z 1712/1812 12005KT P6SM SKC
     FM171600 VRB05KT P6SM SKC
     FM172100 30007KT P6SM FEW250
     FM180600 24011KT P6SM SCT250=



000
FTUS46 KPDT 171100
TAFDLS
TAF
KDLS 171120Z 1712/1812 VRB04KT P6SM SKC
     FM172100 32011KT P6SM SCT250
     FM180000 31015G22KT P6SM SCT250
     FM180600 31011KT P6SM SKC=



000
FTUS46 KPDT 171100
TAFALW
TAF
KALW 171120Z 1712/1812 12005KT P6SM SKC
     FM171500 VRB04KT P6SM SKC
     FM171800 24006KT P6SM FEW250
     FM180300 15006KT P6SM FEW250
     FM180600 18009KT P6SM SCT070=



000
FTUS46 KPDT 171100
TAFDLS
TAF
KDLS 171120Z 1712/1812 VRB04KT P6SM SKC
     FM172100 32011KT P6SM SCT250
     FM180000 31015G22KT P6SM SCT250
     FM180600 31011KT P6SM SKC=



000
FTUS46 KPDT 171100
TAFALW
TAF
KALW 171120Z 1712/1812 12005KT P6SM SKC
     FM171500 VRB04KT P6SM SKC
     FM171800 24006KT P6SM FEW250
     FM180300 15006KT P6SM FEW250
     FM180600 18009KT P6SM SCT070=



000
FTUS46 KPDT 171100
TAFYKM
TAF
KYKM 171120Z 1712/1812 29007KT P6SM SKC
     FM171500 24005KT P6SM FEW250
     FM172100 12005KT P6SM SCT250
     FM180000 32012KT P6SM SCT070=



000
FTUS46 KPDT 171100
TAFRDM
TAF
KRDM 171120Z 1712/1812 15005KT P6SM FEW250
     FM172100 34008KT P6SM SCT250
     FM180900 25005KT P6SM SKC=



000
FTUS46 KPDT 171100
TAFPDT
TAF
KPDT 171120Z 1712/1812 12005KT P6SM SKC
     FM171600 VRB05KT P6SM SKC
     FM172100 30007KT P6SM FEW250
     FM180600 24011KT P6SM SCT250=



000
FTUS46 KPDT 171100
TAFYKM
TAF
KYKM 171120Z 1712/1812 29007KT P6SM SKC
     FM171500 24005KT P6SM FEW250
     FM172100 12005KT P6SM SCT250
     FM180000 32012KT P6SM SCT070=



000
FTUS46 KPDT 171100
TAFPSC
TAF
KPSC 171120Z 1712/1812 VRB05KT P6SM SKC
     FM172100 VRB05KT P6SM SCT250=



000
FTUS46 KPDT 170500
TAFALW
TAF
KALW 170520Z 1706/1806 09008KT P6SM SKC
     FM170900 12005KT P6SM SKC
     FM171500 VRB04KT P6SM SKC
     FM171800 24006KT P6SM FEW250
     FM172100 24006KT P6SM SCT250=



000
FTUS46 KPDT 170500
TAFYKM
TAF
KYKM 170520Z 1706/1806 VRB05KT P6SM SKC
     FM170900 27007KT P6SM SKC
     FM171500 24005KT P6SM FEW250
     FM172100 12005KT P6SM SCT250=



000
FTUS46 KPDT 170500
TAFPSC
TAF
KPSC 170520Z 1706/1806 VRB05KT P6SM SKC
     FM172100 VRB05KT P6SM SCT250=



000
FTUS46 KPDT 170500
TAFRDM
TAF
KRDM 170520Z 1706/1806 31007KT P6SM SKC
     FM170900 VRB03KT P6SM SKC
     FM171200 15005KT P6SM FEW250
     FM172100 34008KT P6SM SCT250=



000
FTUS46 KPDT 170500
TAFDLS
TAF
KDLS 170520Z 1706/1806 VRB04KT P6SM SKC
     FM172100 32011KT P6SM SCT250=



000
FTUS46 KPDT 170500
TAFPSC
TAF
KPSC 170520Z 1706/1806 VRB05KT P6SM SKC
     FM172100 VRB05KT P6SM SCT250=



000
FTUS46 KPDT 170500
TAFRDM
TAF
KRDM 170520Z 1706/1806 31007KT P6SM SKC
     FM170900 VRB03KT P6SM SKC
     FM171200 15005KT P6SM FEW250
     FM172100 34008KT P6SM SCT250=



000
FTUS46 KPDT 170500
TAFPDT
TAF
KPDT 170520Z 1706/1806 VRB05KT P6SM SKC
     FM170900 12005KT P6SM SKC
     FM171600 VRB05KT P6SM FEW250
     FM172100 30007KT P6SM SCT250=



000
FTUS46 KPDT 170500
TAFYKM
TAF
KYKM 170520Z 1706/1806 VRB05KT P6SM SKC
     FM170900 27007KT P6SM SKC
     FM171500 24005KT P6SM FEW250
     FM172100 12005KT P6SM SCT250=



000
FTUS46 KPDT 170500
TAFALW
TAF
KALW 170520Z 1706/1806 09008KT P6SM SKC
     FM170900 12005KT P6SM SKC
     FM171500 VRB04KT P6SM SKC
     FM171800 24006KT P6SM FEW250
     FM172100 24006KT P6SM SCT250=



000
FTUS46 KPDT 170500
TAFDLS
TAF
KDLS 170520Z 1706/1806 VRB04KT P6SM SKC
     FM172100 32011KT P6SM SCT250=



000
FTUS46 KPDT 170500
TAFPDT
TAF
KPDT 170520Z 1706/1806 VRB05KT P6SM SKC
     FM170900 12005KT P6SM SKC
     FM171600 VRB05KT P6SM FEW250
     FM172100 30007KT P6SM SCT250=



000
FTUS46 KPDT 162300
TAFPSC
TAF
KPSC 162320Z 1700/1724 33004KT P6SM FEW250=



000
FTUS46 KPDT 162300
TAFDLS
TAF
KDLS 162320Z 1700/1724 VRB04KT P6SM SKC
     FM172000 32011KT P6SM SCT250=



000
FTUS46 KPDT 162300
TAFRDM
TAF
KRDM 162320Z 1700/1724 35009KT P6SM SKC
     FM170400 VRB03KT P6SM SKC
     FM172000 34008KT P6SM SCT250=



000
FTUS46 KPDT 162300
TAFPDT
TAF
KPDT 162320Z 1700/1724 03005KT P6SM SKC
     FM170500 14007KT P6SM SKC
     FM171500 VRB05KT P6SM FEW250
     FM171800 28008KT P6SM SCT250=



000
FTUS46 KPDT 162300
TAFYKM
TAF
KYKM 162320Z 1700/1724 VRB05KT P6SM SKC
     FM170300 26005KT P6SM SKC
     FM171600 VRB04KT P6SM FEW250=



000
FTUS46 KPDT 162300
TAFDLS
TAF
KDLS 162320Z 1700/1724 VRB04KT P6SM SKC
     FM172000 32011KT P6SM SCT250=



000
FTUS46 KPDT 162300
TAFPDT
TAF
KPDT 162320Z 1700/1724 03005KT P6SM SKC
     FM170500 14007KT P6SM SKC
     FM171500 VRB05KT P6SM FEW250
     FM171800 28008KT P6SM SCT250=



000
FTUS46 KPDT 162300
TAFALW
TAF
KALW 162320Z 1700/1724 33005KT P6SM SKC
     FM170400 12005KT P6SM SKC
     FM171500 VRB04KT P6SM SKC
     FM171800 23006KT P6SM SCT250=



000
FTUS46 KPDT 162300
TAFYKM
TAF
KYKM 162320Z 1700/1724 VRB05KT P6SM SKC
     FM170300 26005KT P6SM SKC
     FM171600 VRB04KT P6SM FEW250=



000
FTUS46 KPDT 162300
TAFPSC
TAF
KPSC 162320Z 1700/1724 33004KT P6SM FEW250=



000
FTUS46 KPDT 162300
TAFALW
TAF
KALW 162320Z 1700/1724 33005KT P6SM SKC
     FM170400 12005KT P6SM SKC
     FM171500 VRB04KT P6SM SKC
     FM171800 23006KT P6SM SCT250=



000
FTUS46 KPDT 161700
TAFDLS
TAF
KDLS 161720Z 1618/1718 VRB04KT P6SM SKC=



000
FTUS46 KPDT 161700
TAFALW
TAF
KALW 161720Z 1618/1718 33005KT P6SM SKC
     FM170400 12005KT P6SM SKC
     FM171500 VRB04KT P6SM SKC=



000
FTUS46 KPDT 161700
TAFYKM
TAF
KYKM 161720Z 1618/1718 VRB05KT P6SM SKC
     FM170300 26005KT P6SM SKC
     FM171600 VRB04KT P6SM FEW250=



000
FTUS46 KPDT 161700
TAFRDM
TAF
KRDM 161720Z 1618/1718 VRB04KT P6SM SKC
     FM162100 33009KT P6SM SKC
     FM170400 VRB03KT P6SM SKC=



000
FTUS46 KPDT 161700
TAFPSC
TAF
KPSC 161720Z 1618/1718 33005KT P6SM FEW250=



000
FTUS46 KPDT 161700
TAFALW
TAF
KALW 161720Z 1618/1718 33005KT P6SM SKC
     FM170400 12005KT P6SM SKC
     FM171500 VRB04KT P6SM SKC=



000
FTUS46 KPDT 161700
TAFPDT
TAF
KPDT 161720Z 1618/1718 33007KT P6SM SKC
     FM170100 03004KT P6SM SKC
     FM170500 14007KT P6SM SKC
     FM171500 VRB05KT P6SM FEW250=



000
FTUS46 KPDT 161700
TAFDLS
TAF
KDLS 161720Z 1618/1718 VRB04KT P6SM SKC=



000
FTUS46 KPDT 161700
TAFPDT
TAF
KPDT 161720Z 1618/1718 33007KT P6SM SKC
     FM170100 03004KT P6SM SKC
     FM170500 14007KT P6SM SKC
     FM171500 VRB05KT P6SM FEW250=



000
FTUS46 KPDT 161700
TAFRDM
TAF
KRDM 161720Z 1618/1718 VRB04KT P6SM SKC
     FM162100 33009KT P6SM SKC
     FM170400 VRB03KT P6SM SKC=



000
FTUS46 KPDT 161700
TAFPSC
TAF
KPSC 161720Z 1618/1718 33005KT P6SM FEW250=



000
FTUS46 KPDT 161700
TAFYKM
TAF
KYKM 161720Z 1618/1718 VRB05KT P6SM SKC
     FM170300 26005KT P6SM SKC
     FM171600 VRB04KT P6SM FEW250=



000
FTUS46 KPDT 161100
TAFDLS
TAF
KDLS 161120Z 1612/1712 VRB04KT P6SM FEW250
     FM161800 33008KT P6SM SKC
     FM170200 VRB04KT P6SM SKC=



000
FTUS46 KPDT 161100
TAFPSC
TAF
KPSC 161120Z 1612/1712 VRB05KT P6SM FEW250=



000
FTUS46 KPDT 161100
TAFPDT
TAF
KPDT 161120Z 1612/1712 14007KT P6SM SKC
     FM161900 33007KT P6SM SKC
     FM170200 VRB04KT P6SM SKC
     FM170500 13007KT P6SM SKC=



000
FTUS46 KPDT 161100
TAFDLS
TAF
KDLS 161120Z 1612/1712 VRB04KT P6SM FEW250
     FM161800 33008KT P6SM SKC
     FM170200 VRB04KT P6SM SKC=



000
FTUS46 KPDT 161100
TAFALW
TAF
KALW 161120Z 1612/1712 11005KT P6SM SKC
     FM161800 24005KT P6SM SKC
     FM170300 VRB04KT P6SM SKC
     FM170600 12005KT P6SM SKC=



000
FTUS46 KPDT 161100
TAFRDM
TAF
KRDM 161120Z 1612/1712 VRB05KT P6SM FEW250
     FM162100 33009KT P6SM SCT250
     FM170400 VRB05KT P6SM FEW250=



000
FTUS46 KPDT 161100
TAFPDT
TAF
KPDT 161120Z 1612/1712 14007KT P6SM SKC
     FM161900 33007KT P6SM SKC
     FM170200 VRB04KT P6SM SKC
     FM170500 13007KT P6SM SKC=



000
FTUS46 KPDT 161100
TAFALW
TAF
KALW 161120Z 1612/1712 11005KT P6SM SKC
     FM161800 24005KT P6SM SKC
     FM170300 VRB04KT P6SM SKC
     FM170600 12005KT P6SM SKC=



000
FTUS46 KPDT 161100
TAFYKM
TAF
KYKM 161120Z 1612/1712 26006KT P6SM FEW250
     FM161800 VRB05KT P6SM SKC
     FM162100 13005KT P6SM SKC
     FM170300 26005KT P6SM FEW250=



000
FTUS46 KPDT 161100
TAFRDM
TAF
KRDM 161120Z 1612/1712 VRB05KT P6SM FEW250
     FM162100 33009KT P6SM SCT250
     FM170400 VRB05KT P6SM FEW250=



000
FTUS46 KPDT 161100
TAFPSC
TAF
KPSC 161120Z 1612/1712 VRB05KT P6SM FEW250=



000
FTUS46 KPDT 161100
TAFYKM
TAF
KYKM 161120Z 1612/1712 26006KT P6SM FEW250
     FM161800 VRB05KT P6SM SKC
     FM162100 13005KT P6SM SKC
     FM170300 26005KT P6SM FEW250=



000
FTUS46 KPDT 160500
TAFRDM
TAF
KRDM 160520Z 1606/1706 34006KT P6SM FEW040
     FM160900 VRB04KT P6SM SKC
     FM162100 31007KT P6SM SCT250=



000
FTUS46 KPDT 160500
TAFPDT
TAF
KPDT 160520Z 1606/1706 VRB04KT P6SM SKC
     FM160900 12005KT P6SM SKC
     FM161800 33006KT P6SM SKC
     FM170300 VRB04KT P6SM SKC=



000
FTUS46 KPDT 160500
TAFDLS
TAF
KDLS 160520Z 1606/1706 VRB04KT P6SM SKC
     FM161800 34006KT P6SM SKC
     FM170000 VRB04KT P6SM SKC=



000
FTUS46 KPDT 160500
TAFYKM
TAF
KYKM 160520Z 1606/1706 VRB05KT P6SM SKC
     FM160900 27006KT P6SM SKC
     FM161800 VRB05KT P6SM SKC
     FM162100 12005KT P6SM FEW250
     FM170300 27005KT P6SM SCT250=



000
FTUS46 KPDT 160500
TAFALW
TAF
KALW 160520Z 1606/1706 10005KT P6SM SKC
     FM160900 11005KT P6SM SKC
     FM161800 25005KT P6SM SKC
     FM170300 VRB04KT P6SM SKC=



000
FTUS46 KPDT 160500
TAFPSC
TAF
KPSC 160520Z 1606/1706 VRB04KT P6SM SKC=



000
FTUS46 KPDT 160500
TAFDLS
TAF
KDLS 160520Z 1606/1706 VRB04KT P6SM SKC
     FM161800 34006KT P6SM SKC
     FM170000 VRB04KT P6SM SKC=



000
FTUS46 KPDT 160500
TAFPDT
TAF
KPDT 160520Z 1606/1706 VRB04KT P6SM SKC
     FM160900 12005KT P6SM SKC
     FM161800 33006KT P6SM SKC
     FM170300 VRB04KT P6SM SKC=



000
FTUS46 KPDT 160500
TAFRDM
TAF
KRDM 160520Z 1606/1706 34006KT P6SM FEW040
     FM160900 VRB04KT P6SM SKC
     FM162100 31007KT P6SM SCT250=



000
FTUS46 KPDT 160500
TAFPSC
TAF
KPSC 160520Z 1606/1706 VRB04KT P6SM SKC=



000
FTUS46 KPDT 160500
TAFYKM
TAF
KYKM 160520Z 1606/1706 VRB05KT P6SM SKC
     FM160900 27006KT P6SM SKC
     FM161800 VRB05KT P6SM SKC
     FM162100 12005KT P6SM FEW250
     FM170300 27005KT P6SM SCT250=



000
FTUS46 KPDT 160500
TAFALW
TAF
KALW 160520Z 1606/1706 10005KT P6SM SKC
     FM160900 11005KT P6SM SKC
     FM161800 25005KT P6SM SKC
     FM170300 VRB04KT P6SM SKC=



000
FTUS46 KPDT 160300 AAD
TAFDLS
TAF AMD
KDLS 160307Z 1603/1624 VRB04KT P6SM SKC
     FM160700 VRB04KT P6SM SKC=



000
FTUS46 KPDT 160300 AAD
TAFDLS
TAF AMD
KDLS 160307Z 1603/1624 VRB04KT P6SM SKC
     FM160700 VRB04KT P6SM SKC=



000
FTUS46 KPDT 160200 AAC
TAFDLS
TAF AMD
KDLS 160224Z 1602/1624 30008G15KT P6SM SKC
     FM160700 VRB04KT P6SM SKC=



000
FTUS46 KPDT 160000 AAB
TAFDLS
TAF AMD
KDLS 160001Z 1600/1624 29010G20KT P6SM SKC
     FM160400 VRB04KT P6SM SKC=



000
FTUS46 KPDT 152300 AAA
TAFDLS
TAF AMD
KDLS 152331Z 1600/1624 34008G15KT P6SM SKC
     FM160400 VRB04KT P6SM SKC=



000
FTUS46 KPDT 152300 AAA
TAFDLS
TAF AMD
KDLS 152331Z 1600/1624 34008G15KT P6SM SKC
     FM160400 VRB04KT P6SM SKC=



000
FTUS46 KPDT 152300
TAFPDT
TAF
KPDT 152320Z 1600/1624 VRB04KT P6SM FEW050
     FM160400 15006KT P6SM SKC
     FM161500 26005KT P6SM FEW200=



000
FTUS46 KPDT 152300
TAFALW
TAF
KALW 152320Z 1600/1624 VRB05KT P6SM FEW050
     FM160400 12005KT P6SM SKC
     FM161500 20005KT P6SM FEW250=



000
FTUS46 KPDT 152300
TAFDLS
TAF
KDLS 152320Z 1600/1624 30011KT P6SM SKC
     FM160400 VRB04KT P6SM SKC=



000
FTUS46 KPDT 152300
TAFPSC
TAF
KPSC 152320Z 1600/1624 33005KT P6SM SKC=



000
FTUS46 KPDT 152300
TAFYKM
TAF
KYKM 152320Z 1600/1624 29006KT P6SM FEW250
     FM161800 VRB05KT P6SM SKC=



000
FTUS46 KPDT 152300
TAFRDM
TAF
KRDM 152320Z 1600/1624 34008KT P6SM FEW040
     FM160500 VRB04KT P6SM SKC
     FM162000 35007KT P6SM SKC=



000
FTUS46 KPDT 152000 AAA
TAFPDT
TAF AMD
KPDT 152047Z 1521/1618 32008G14KT P6SM FEW050 SCT200
     FM160400 15006KT P6SM SKC
     FM161500 26005KT P6SM FEW200=



000
FTUS46 KPDT 151700
TAFYKM
TAF
KYKM 151725Z 1518/1618 VRB04KT P6SM FEW250
     FM152100 VRB06KT P6SM FEW080 SCT250
     FM160400 29006KT P6SM SCT250=



000
FTUS46 KPDT 151700
TAFALW
TAF
KALW 151725Z 1518/1618 26011KT P6SM SKC
     FM152100 24008KT P6SM FEW060 SCT250
     FM160400 12005KT P6SM SKC
     FM161500 20005KT P6SM FEW250=



000
FTUS46 KPDT 151700
TAFPDT
TAF
KPDT 151725Z 1518/1618 28011KT P6SM SKC
     FM152100 29014KT P6SM FEW060 SCT200
     FM160400 15006KT P6SM SKC
     FM161500 26005KT P6SM FEW200=



000
FTUS46 KPDT 151700
TAFDLS
TAF
KDLS 151725Z 1518/1618 32013KT P6SM SKC
     FM152100 30015G23KT P6SM SCT200
     FM160400 VRB04KT P6SM SKC=



000
FTUS46 KPDT 151700
TAFRDM
TAF
KRDM 151725Z 1518/1618 29005KT P6SM FEW035
     FM152100 32008KT P6SM FEW040 SCT250
     FM160400 VRB04KT P6SM SCT200=



000
FTUS46 KPDT 151700
TAFPSC
TAF
KPSC 151725Z 1518/1618 VRB05KT P6SM SKC
     FM152100 VRB05KT P6SM FEW090 SCT250
     FM160300 VRB03KT P6SM SCT250=



000
FTUS46 KPDT 151100
TAFPSC
TAF
KPSC 151122Z 1512/1612 VRB05KT P6SM FEW100 FEW250
     FM152100 20007KT P6SM SCT250
     FM160300 VRB04KT P6SM SCT250=



000
FTUS46 KPDT 151100
TAFRDM
TAF
KRDM 151122Z 1512/1612 VRB04KT P6SM BKN035
     FM151400 17005KT P6SM SCT050
     FM152100 32008KT P6SM FEW060 SCT250
     FM160400 VRB04KT P6SM SCT250
     FM160900 17005KT P6SM SCT260=



000
FTUS46 KPDT 151100
TAFPDT
TAF
KPDT 151122Z 1512/1612 24011KT P6SM SCT100
     FM151500 22007KT P6SM FEW100 SCT250
     FM152100 29009KT P6SM SCT250
     FM160100 VRB05KT P6SM FEW250
     FM160500 15006KT P6SM SCT250=



000
FTUS46 KPDT 151100
TAFALW
TAF
KALW 151122Z 1512/1612 18011KT P6SM SCT090
     FM151600 21009KT P6SM SCT090 SCT250
     FM152100 24008KT P6SM FEW250
     FM160200 11007KT P6SM SCT250=



000
FTUS46 KPDT 151100
TAFYKM
TAF
KYKM 151122Z 1512/1612 26006KT P6SM FEW250
     FM152100 VRB06KT P6SM FEW080 SCT250
     FM160500 27006KT P6SM SCT250=



000
FTUS46 KPDT 151100
TAFDLS
TAF
KDLS 151122Z 1512/1612 31006KT P6SM SCT100
     FM151600 32011KT P6SM FEW090 SCT250
     FM152100 30013G20KT P6SM SCT250
     FM160400 30006KT P6SM SCT250=



000
FTUS46 KPDT 150800 AAA
TAFPDT
TAF AMD
KPDT 150822Z 1508/1606 24011KT P6SM SCT070 BKN100
     FM151100 20010KT P6SM SCT090 BKN120
     FM151500 23007KT P6SM SCT120 BKN250
     FM152100 28008G15KT P6SM SCT250=



000
FTUS46 KPDT 150600 AAA
TAFDLS
TAF AMD
KDLS 150659Z 1507/1606 30006KT P6SM FEW100 SCT150
     FM151600 32008G15KT P6SM SCT250
     FM152100 30010G20KT P6SM SCT250=



000
FTUS46 KPDT 150600 AAA
TAFDLS
TAF AMD
KDLS 150659Z 1507/1606 30006KT P6SM FEW100 SCT150
     FM151600 32008G15KT P6SM SCT250
     FM152100 30010G20KT P6SM SCT250=



000
FTUS46 KPDT 150600 AAA
TAFALW
TAF AMD
KALW 150609Z 1506/1606 18011KT P6SM SCT100
     FM151500 20008KT P6SM SCT120 BKN250
     FM152100 24008G15KT P6SM SCT250=



000
FTUS46 KPDT 150600 AAA
TAFALW
TAF AMD
KALW 150609Z 1506/1606 18011KT P6SM SCT100
     FM151500 20008KT P6SM SCT120 BKN250
     FM152100 24008G15KT P6SM SCT250=



000
FTUS46 KPDT 150500 AAA
TAFPSC
TAF AMD
KPSC 150524Z 1505/1606 26008KT P6SM SCT150
     FM151200 VRB05KT P6SM FEW150
     FM152100 21007KT P6SM SCT250=



000
FTUS46 KPDT 150500 AAA
TAFPSC
TAF AMD
KPSC 150524Z 1505/1606 26008KT P6SM SCT150
     FM151200 VRB05KT P6SM FEW150
     FM152100 21007KT P6SM SCT250=



000
FTUS46 KPDT 150500
TAFRDM
TAF
KRDM 150520Z 1506/1606 VRB05KT P6SM FEW050 SCT080
     FM151200 17006KT P6SM SCT080
     FM152100 32006KT P6SM SCT200=



000
FTUS46 KPDT 150500
TAFDLS
TAF
KDLS 150520Z 1506/1606 29008G15KT P6SM SCT090 BKN150
     FM150900 30007KT P6SM FEW100 SCT150
     FM151600 32008G15KT P6SM SCT250
     FM152100 30010G20KT P6SM SCT250=



000
FTUS46 KPDT 150500
TAFYKM
TAF
KYKM 150520Z 1506/1606 26008KT P6SM SCT070
     FM150900 27006KT P6SM FEW100 SCT150
     FM151600 VRB05KT P6SM FEW150
     FM152100 12006KT P6SM SCT250=



000
FTUS46 KPDT 150500
TAFALW
TAF
KALW 150520Z 1506/1606 27007KT P6SM SCT090 BKN120
     FM151000 19008KT P6SM SCT090 BKN120
     FM151500 20008KT P6SM SCT120 BKN250
     FM152100 24008G15KT P6SM SCT250=



000
FTUS46 KPDT 150500
TAFPDT
TAF
KPDT 150520Z 1506/1606 26020G30KT P6SM SCT070 BKN100
     FM150900 27012G22KT P6SM SCT090 BKN120
     FM151500 23007KT P6SM SCT120 BKN250
     FM152100 28008G15KT P6SM SCT250=



000
FTUS46 KPDT 150500
TAFPSC
TAF
KPSC 150520Z 1506/1606 31008G15KT P6SM SCT150
     FM151200 VRB05KT P6SM FEW150
     FM152100 21007KT P6SM SCT250=



    US Dept of Commerce
    National Oceanic and Atmospheric Administration
    National Weather Service
    1325 East West Highway
    Silver Spring, MD 20910
    Page Author: NWS Internet Services Team
Disclaimer
Information Quality
Credits
Glossary
Privacy Policy
Freedom of Information Act (FOIA)
About Us
Career Opportunities